UUDDURKK

Guest
Details From UUDD - Moscou Domodedovo
To URKK - Pashkovskiy
Flight Number -
Tags Generated
Created
Modified
Stats Distance 628 nm / 1,162 km
Max Altitude 0 ft / 0 m
Waypoints 4
Social Downloads 3
Likes 0
Share VATSIM

Download

Looking for another format? Having issues loading an existing format? Contact us
Advertisement - Login to hide

Notes

Generated

Route

UUDD MASOL NODMI URKK

ID Type Via Altitude Latitude Longitude Leg Dist Tot Dist Heading (true) Name
O UUDD APT - 0 ft / 0 m 55.42000˚ 37.88000˚ - 0 nm - -
MASOL FIX - 0 ft / 0 m 50.07488˚ 38.22500˚ 321 nm 321 nm 178° / 178° -
NODMI FIX - 0 ft / 0 m 45.03500˚ 39.17000˚ 305 nm 626 nm 172° / 173° -
O URKK APT - 0 ft / 0 m 45.02906˚ 39.14142˚ 1 nm 627 nm 254° / 254° -

Altitude Profile

Advertisement - Login to hide

Weather


0- 5 10 15 20 25 30 35+ Temperature / ° C

Clouds and Precipitation
Forecast for 2017-12-17 18:00 UTC. Updated an hour ago

Ground ~20,000 ft ~40,000 ft Winds

UUDD

Details ICAO UUDD (DME)
Name Moscou Domodedovo
Region Russia
Timezone Europe/Moscow (UTC+3.0)
Stats Elevation 588 ft / 179 m (AMSL)
Location 55.409191° 37.901432°
Runways 3
Magnetic Variation 11.026° E

METAR

UUDD 171800Z 30004MPS 9999 BKN024 01/M01 Q1016 R88/290095 NOSIG

Decode

TAF

TAF UUDD 171657Z 1718/1824 32003MPS 8000 BKN015 TX01/1718Z TNM00/1804Z FM180600 05007MPS 3100 -SN BR OVC007 BECMG 1809/1811 1000 SN OVC004 TEMPO 1812/1824 05007G13MPS 0400 +SHSN BKN002 BKN010CB PROB40 TEMPO 1812/1821 FZRA OVC002

Decode

Departure Runways

ID Width Length Bearing (true) Bearing (mag) Surface Threshold Offset Overrun Length
14C 148 ft / 45 m 8,754 ft / 2,668 m 146.47° 135.44° Concrete 0 ft / 0 m 0 ft / 0 m
14L 174 ft / 53 m 12,382 ft / 3,774 m 145.59° 134.56° Concrete 0 ft / 0 m 0 ft / 0 m
14R 230 ft / 70 m 11,395 ft / 3,473 m 145.45° 134.42° Concrete 0 ft / 0 m 0 ft / 0 m
32C 148 ft / 45 m 8,754 ft / 2,668 m 326.49° 315.46° Concrete 0 ft / 0 m 0 ft / 0 m
32L 230 ft / 70 m 11,395 ft / 3,473 m 325.48° 314.45° Concrete 0 ft / 0 m 0 ft / 0 m
32R 174 ft / 53 m 12,382 ft / 3,774 m 325.61° 314.58° Concrete 0 ft / 0 m 0 ft / 0 m

URKK

Details ICAO URKK (KRR)
Name PASHKOVSKIY
Region Russia
Timezone Europe/Moscow (UTC+3.0)
Stats Elevation 118 ft / 36 m (AMSL)
Location 45.034644° 39.170454°
Runways 2
Magnetic Variation 7.356° E

METAR

URKK 171800Z 09003MPS 060V120 9999 SCT059CB 09/05 Q1015 R05R/290060 NOSIG RMK QFE758

Decode

TAF

TAF URKK 171656Z 1718/1818 11003G08MPS 9999 SCT020CB TEMPO 1718/1818 3100 -SHRA BR SCT011 BKN020CB

Decode

Destination Runways

ID Width Length Bearing (true) Bearing (mag) Surface Threshold Offset Overrun Length
05L 160 ft / 49 m 7,177 ft / 2,187 m 52.37° 45.01° Asphalt 0 ft / 0 m 160 ft / 49 m
05R 145 ft / 44 m 9,822 ft / 2,994 m 52.45° 45.09° Concrete 0 ft / 0 m 160 ft / 49 m
23L 145 ft / 44 m 9,822 ft / 2,994 m 232.47° 225.11° Concrete 0 ft / 0 m 160 ft / 49 m
23R 160 ft / 49 m 7,177 ft / 2,187 m 232.38° 225.02° Asphalt 0 ft / 0 m 160 ft / 49 m

Popular Alternatives